Terminal Aerodrome Forecast
Issued by NWS

Home | Current Version | Previous Version | Text Only | Print | Product List | Glossary On
Versions: 1 2 3 4 5 6 7 8 9 10 11 12 13 14
578
FTUS45 KRIW 232320
TAFLND
TAF
KLND 232320Z 2400/2424 27009G18KT P6SM VCTS SCT070CB BKN090
     FM240230 28008KT P6SM FEW110 SCT200
     FM241900 23011G19KT P6SM BKN150
     FM242200 25011G18KT P6SM VCTS SCT070 BKN090CB=

USA.gov is the U.S. government's official web portal to all federal, state and local government web resources and services.